createdAt,value
2018-10-19T00:00:21.713Z,3.57
2018-10-19T00:03:13.046Z,3.60
2018-10-19T00:06:04.342Z,3.80
2018-10-19T00:08:55.774Z,3.33
2018-10-19T00:11:47.246Z,3.60
2018-10-19T00:14:38.536Z,3.37
2018-10-19T00:17:48.173Z,3.70
2018-10-19T00:20:39.747Z,3.33
2018-10-19T00:26:59.775Z,3.07
2018-10-19T00:29:50.975Z,3.40
2018-10-19T00:32:55.966Z,3.47
2018-10-19T00:35:33.883Z,3.53
2018-10-19T00:38:24.931Z,3.37
2018-10-19T00:41:47.621Z,3.63
2018-10-19T00:44:26.690Z,3.33
2018-10-19T00:47:36.521Z,3.50
2018-10-19T00:50:27.692Z,2.97
2018-10-19T00:53:18.650Z,3.60
2018-10-19T00:56:09.696Z,3.70
2018-10-19T00:59:00.824Z,3.30
2018-10-19T01:02:10.697Z,3.70
2018-10-19T01:05:06.000Z,3.37
2018-10-19T01:07:57.267Z,3.13
2018-10-19T01:10:48.333Z,3.40
2018-10-19T01:16:49.058Z,3.30
2018-10-19T01:19:58.906Z,3.30
2018-10-19T01:22:50.382Z,3.40
2018-10-19T01:26:00.069Z,3.30
2018-10-19T01:28:51.627Z,3.17
2018-10-19T01:31:43.115Z,3.57
2018-10-19T01:34:34.218Z,3.20
2018-10-19T01:37:25.314Z,3.13
2018-10-19T01:40:16.369Z,3.40
2018-10-19T01:43:07.711Z,3.03
2018-10-19T01:46:00.193Z,3.27
2018-10-19T01:48:51.205Z,3.40
2018-10-19T01:51:54.344Z,3.40
2018-10-19T01:54:33.753Z,3.60
2018-10-19T01:57:24.960Z,3.60
2018-10-19T02:00:15.965Z,3.57
2018-10-19T02:03:07.630Z,3.37
2018-10-19T02:05:58.563Z,4.13
2018-10-19T02:08:50.132Z,4.70
2018-10-19T02:11:41.416Z,3.63
2018-10-19T02:14:32.346Z,3.83
2018-10-19T02:17:23.412Z,3.87
2018-10-19T02:20:14.729Z,4.37
2018-10-19T02:23:05.839Z,4.30
2018-10-19T02:29:27.271Z,4.43
2018-10-19T02:32:04.480Z,4.30
2018-10-19T02:34:55.650Z,3.70
2018-10-19T02:37:49.715Z,4.43
2018-10-19T02:40:40.841Z,4.47
2018-10-19T02:43:32.221Z,4.20
2018-10-19T02:46:23.521Z,4.00
2018-10-19T02:52:06.594Z,3.70
2018-10-19T02:54:57.972Z,4.23
2018-10-19T02:57:49.039Z,3.77
2018-10-19T03:00:40.108Z,3.77
2018-10-19T03:03:50.751Z,4.03
2018-10-19T03:06:41.686Z,3.90
2018-10-19T03:09:46.939Z,3.97
2018-10-19T03:12:23.635Z,4.13
2018-10-19T03:18:26.036Z,3.40
2018-10-19T03:21:03.333Z,2.73
2018-10-19T03:23:54.561Z,2.70
2018-10-19T03:27:04.609Z,2.30
2018-10-19T03:29:55.938Z,2.60
2018-10-19T03:33:05.754Z,3.13
2018-10-19T03:35:56.776Z,2.40
2018-10-19T03:38:47.814Z,2.43
2018-10-19T03:41:57.604Z,1.77
2018-10-19T03:44:50.341Z,2.20
2018-10-19T03:50:37.042Z,2.17
2018-10-19T03:53:28.258Z,2.87
2018-10-19T03:56:19.687Z,2.07
2018-10-19T03:59:11.104Z,2.47
2018-10-19T04:02:02.346Z,2.40
2018-10-19T04:04:53.411Z,3.00
2018-10-19T04:07:44.459Z,2.87
2018-10-19T04:10:35.541Z,2.80
2018-10-19T04:16:18.140Z,2.67
2018-10-19T04:19:27.991Z,2.97
2018-10-19T04:22:37.813Z,2.90
2018-10-19T04:25:29.109Z,2.93
2018-10-19T04:28:21.217Z,3.07
2018-10-19T04:31:11.747Z,3.20
2018-10-19T04:34:02.406Z,2.70
2018-10-19T04:36:53.153Z,2.60
2018-10-19T04:39:46.743Z,3.00
2018-10-19T04:42:37.311Z,3.67
2018-10-19T04:45:47.329Z,3.70
2018-10-19T04:48:38.352Z,3.80
2018-10-19T04:51:29.324Z,3.50
2018-10-19T04:54:20.278Z,3.80
2018-10-19T04:57:11.337Z,3.57
2018-10-19T05:00:02.367Z,4.50
2018-10-19T05:03:11.184Z,4.30
2018-10-19T05:05:44.908Z,4.50
2018-10-19T05:08:35.893Z,5.07
2018-10-19T05:11:26.924Z,4.93
2018-10-19T05:14:18.490Z,4.47
2018-10-19T05:20:00.387Z,4.33
2018-10-19T05:22:53.234Z,4.67
2018-10-19T05:25:45.462Z,4.07
2018-10-19T05:28:55.270Z,3.97
2018-10-19T06:00:38.173Z,5.00
2018-10-19T06:03:29.157Z,5.20
2018-10-19T06:11:59.170Z,5.87
2018-10-19T06:20:42.589Z,5.73
2018-10-19T06:23:33.582Z,5.80
2018-10-19T06:26:24.883Z,5.13
2018-10-19T06:35:01.069Z,6.10
2018-10-19T06:40:47.890Z,7.17
2018-10-19T06:49:17.628Z,7.17
2018-10-19T06:57:34.909Z,7.00
2018-10-19T07:23:18.374Z,7.80
2018-10-19T07:28:59.886Z,7.73
2018-10-19T07:49:04.223Z,7.13
2018-10-19T07:51:54.765Z,7.77
2018-10-19T07:57:48.078Z,9.00
2018-10-19T08:03:41.081Z,7.67
2018-10-19T08:12:25.014Z,9.30
2018-10-19T08:41:25.436Z,9.07
2018-10-19T08:44:15.936Z,8.83
2018-10-19T08:47:06.525Z,8.10
2018-10-19T08:49:57.181Z,8.17
2018-10-19T08:59:08.608Z,8.77
2018-10-19T09:02:00.880Z,8.80
2018-10-19T09:11:17.233Z,7.20
2018-10-19T09:16:52.763Z,7.30
2018-10-19T09:48:03.095Z,6.43
2018-10-19T10:08:21.962Z,5.00
2018-10-19T10:11:12.451Z,4.93
2018-10-19T10:42:48.906Z,7.33
2018-10-19T10:51:17.832Z,8.70
2018-10-19T10:57:04.561Z,7.60
2018-10-19T11:02:52.771Z,3.30
2018-10-19T11:08:39.345Z,3.30
2018-10-19T11:28:45.327Z,3.40
2018-10-19T11:37:21.226Z,2.97
2018-10-19T11:40:38.994Z,3.03
2018-10-19T11:43:10.680Z,5.07
2018-10-19T11:45:42.239Z,3.27
2018-10-19T11:48:13.862Z,3.03
2018-10-19T11:50:45.545Z,2.90
2018-10-19T11:53:17.136Z,3.20
2018-10-19T11:55:48.784Z,3.37
2018-10-19T11:58:20.376Z,2.50
2018-10-19T12:00:52.010Z,2.87
2018-10-19T12:03:23.665Z,2.73
2018-10-19T12:05:55.239Z,3.10
2018-10-19T12:08:26.833Z,2.83
2018-10-19T12:10:58.450Z,3.23
2018-10-19T12:13:30.159Z,3.13
2018-10-19T12:16:01.835Z,2.63
2018-10-19T12:18:33.368Z,2.43
2018-10-19T12:21:05.030Z,3.63
2018-10-19T12:23:36.666Z,4.20
2018-10-19T12:26:08.460Z,3.43
2018-10-19T12:28:39.959Z,3.20
2018-10-19T12:31:11.664Z,2.80
2018-10-19T12:33:43.219Z,2.80
2018-10-19T12:36:14.908Z,3.00
2018-10-19T12:38:46.506Z,2.40
2018-10-19T12:41:18.112Z,3.20
2018-10-19T12:43:49.705Z,3.20
2018-10-19T12:47:14.790Z,2.80
2018-10-19T12:49:46.650Z,2.77
2018-10-19T12:52:18.249Z,2.80
2018-10-19T12:54:50.595Z,3.00
2018-10-19T12:57:22.283Z,3.10
2018-10-19T12:59:53.930Z,3.73
2018-10-19T13:02:25.580Z,3.33
2018-10-19T13:04:57.164Z,2.60
2018-10-19T13:07:28.811Z,2.47
2018-10-19T13:10:00.490Z,2.77
2018-10-19T13:12:32.088Z,2.90
2018-10-19T13:15:03.750Z,3.37
2018-10-19T13:17:35.363Z,2.93
2018-10-19T13:20:06.973Z,2.93
2018-10-19T13:22:38.609Z,2.93
2018-10-19T13:25:10.215Z,2.10
2018-10-19T13:27:41.869Z,3.00
2018-10-19T13:30:14.533Z,3.37
2018-10-19T13:32:46.142Z,2.20
2018-10-19T13:35:17.751Z,2.20
2018-10-19T13:37:49.435Z,2.37
2018-10-19T13:40:21.167Z,2.20
2018-10-19T13:42:52.831Z,2.53
2018-10-19T13:45:24.471Z,2.10
2018-10-19T13:47:56.409Z,2.80
2018-10-19T13:50:28.219Z,2.60
2018-10-19T13:53:00.035Z,2.20
2018-10-19T13:55:31.572Z,2.10
2018-10-19T13:58:03.238Z,2.43
2018-10-19T14:00:34.855Z,2.37
2018-10-19T14:03:06.578Z,2.50
2018-10-19T14:05:38.307Z,2.60
2018-10-19T14:08:09.816Z,2.63
2018-10-19T14:10:41.468Z,1.83
2018-10-19T14:13:13.200Z,1.90
2018-10-19T14:15:44.802Z,1.77
2018-10-19T14:18:16.395Z,2.67
2018-10-19T14:20:48.083Z,2.07
2018-10-19T14:23:19.721Z,1.97
2018-10-19T14:25:51.317Z,2.00
2018-10-19T14:28:22.939Z,2.33
2018-10-19T14:30:54.572Z,1.97
2018-10-19T14:33:26.276Z,1.87
2018-10-19T14:35:57.779Z,2.40
2018-10-19T14:38:29.411Z,2.33
2018-10-19T14:41:01.072Z,2.57
2018-10-19T14:43:32.661Z,2.40
2018-10-19T14:46:04.300Z,2.20
2018-10-19T14:48:35.973Z,3.00
2018-10-19T14:51:07.902Z,2.93
2018-10-19T14:53:39.460Z,2.77
2018-10-19T14:56:11.110Z,2.30
2018-10-19T14:58:42.747Z,2.70
2018-10-19T15:01:14.364Z,2.67
2018-10-19T15:03:45.989Z,2.50
2018-10-19T15:06:17.603Z,2.17
2018-10-19T15:08:49.281Z,2.70
2018-10-19T15:11:21.326Z,2.47
2018-10-19T15:13:52.549Z,2.93
2018-10-19T15:16:24.168Z,3.13
2018-10-19T15:18:55.790Z,2.50
2018-10-19T15:21:27.390Z,2.33
2018-10-19T15:23:59.039Z,2.47
2018-10-19T15:26:30.657Z,3.93
2018-10-19T15:29:02.424Z,2.70
2018-10-19T15:31:33.973Z,3.27
2018-10-19T15:34:05.597Z,2.83
2018-10-19T15:36:37.324Z,4.17
2018-10-19T15:39:12.019Z,3.93
2018-10-19T15:41:43.824Z,3.77
2018-10-19T15:44:15.428Z,3.60
2018-10-19T15:46:47.067Z,3.83
2018-10-19T15:49:18.744Z,5.13
2018-10-19T15:51:50.339Z,4.00
2018-10-19T15:54:21.966Z,3.90
2018-10-19T15:56:53.735Z,4.53
2018-10-19T15:59:25.467Z,4.67
2018-10-19T16:01:57.069Z,5.00
2018-10-19T16:04:28.723Z,5.70
2018-10-19T16:07:00.381Z,5.47
2018-10-19T16:09:32.031Z,4.00
2018-10-19T16:12:03.717Z,4.50
2018-10-19T16:14:35.317Z,4.00
2018-10-19T16:17:07.034Z,4.60
2018-10-19T16:19:38.689Z,4.73
2018-10-19T16:22:10.514Z,4.13
2018-10-19T16:24:42.154Z,4.27
2018-10-19T16:27:13.841Z,4.40
2018-10-19T16:29:45.354Z,4.87
2018-10-19T16:32:16.987Z,6.43
2018-10-19T16:34:48.672Z,6.53
2018-10-19T16:37:20.205Z,5.70
2018-10-19T16:39:51.880Z,5.17
2018-10-19T16:42:23.528Z,4.43
2018-10-19T16:44:55.227Z,4.60
2018-10-19T16:47:32.082Z,4.63
2018-10-19T16:50:06.854Z,4.10
2018-10-19T16:52:38.644Z,3.90
2018-10-19T16:55:10.310Z,4.30
2018-10-19T16:57:42.012Z,4.30
2018-10-19T17:00:13.672Z,5.50
2018-10-19T17:02:45.304Z,6.13
2018-10-19T17:05:17.010Z,5.40
2018-10-19T17:07:48.541Z,5.60
2018-10-19T17:10:20.161Z,5.17
2018-10-19T17:12:51.776Z,5.00
2018-10-19T17:15:23.379Z,4.97
2018-10-19T17:17:55.030Z,4.37
2018-10-19T17:20:26.603Z,6.40
2018-10-19T17:22:58.233Z,5.80
2018-10-19T17:25:29.873Z,5.50
2018-10-19T17:28:01.559Z,5.80
2018-10-19T17:30:33.268Z,4.97
2018-10-19T17:33:06.342Z,4.97
2018-10-19T17:35:38.065Z,4.20
2018-10-19T17:38:09.765Z,5.00
2018-10-19T17:40:41.421Z,5.00
2018-10-19T17:43:13.148Z,5.20
2018-10-19T17:52:21.047Z,5.20
2018-10-19T18:12:45.604Z,36.50
2018-10-19T18:15:36.225Z,20.27
2018-10-19T19:10:38.664Z,9.87
2018-10-19T19:28:13.391Z,8.00
2018-10-19T19:30:44.654Z,9.00
2018-10-19T20:22:48.813Z,11.87
2018-10-19T20:46:39.111Z,16.20
2018-10-19T21:12:08.656Z,20.17
2018-10-19T22:03:26.461Z,11.87
2018-10-19T22:20:32.078Z,14.20
2018-10-19T22:56:15.568Z,11.53
2018-10-19T23:54:07.350Z,12.43
